createdAt,value
2022-09-20T00:01:10.707Z,101006.22
2022-09-20T00:03:39.744Z,101007.22
2022-09-20T00:06:08.550Z,101008.25
2022-09-20T00:08:35.573Z,101008.56
2022-09-20T00:11:08.580Z,101013.97
2022-09-20T00:13:36.802Z,101003.69
2022-09-20T00:16:12.036Z,101006.06
2022-09-20T00:18:38.860Z,101005.22
2022-09-20T00:21:05.933Z,101009.91
2022-09-20T00:23:33.727Z,101005.41
2022-09-20T00:26:02.028Z,101006.22
2022-09-20T00:28:29.131Z,101007.44
2022-09-20T00:30:56.236Z,101003.22
2022-09-20T00:33:25.093Z,101011.97
2022-09-20T00:35:51.482Z,101014.00
2022-09-20T00:38:17.854Z,101009.78
2022-09-20T00:40:45.189Z,101018.53
2022-09-20T00:43:18.320Z,101009.59
2022-09-20T00:45:49.001Z,101011.31
2022-09-20T00:48:27.342Z,101015.66
2022-09-20T00:51:08.182Z,101009.28
2022-09-20T00:53:48.870Z,101018.88
2022-09-20T00:56:24.780Z,101024.41
2022-09-20T00:59:00.212Z,101018.53
2022-09-20T01:01:26.803Z,101017.88
2022-09-20T01:03:54.511Z,101019.41
2022-09-20T01:06:20.976Z,101015.19
2022-09-20T01:08:50.634Z,101025.63
2022-09-20T01:11:17.975Z,101010.13
2022-09-20T01:13:44.411Z,101018.22
2022-09-20T01:16:12.503Z,101018.41
2022-09-20T01:18:41.410Z,101019.72
2022-09-20T01:21:10.021Z,101020.56
2022-09-20T01:24:07.393Z,101018.88
2022-09-20T01:26:33.759Z,101014.84
2022-09-20T01:29:21.599Z,101017.22
2022-09-20T01:31:54.555Z,101016.03
2022-09-20T01:34:32.688Z,101024.09
2022-09-20T01:37:28.537Z,101023.44
2022-09-20T01:40:10.455Z,101020.94
2022-09-20T01:42:38.639Z,101022.75
2022-09-20T01:45:18.137Z,101035.22
2022-09-20T01:47:56.197Z,101025.81
2022-09-20T01:50:47.232Z,101018.41
2022-09-20T01:53:32.079Z,101030.84
2022-09-20T01:56:14.882Z,101028.50
2022-09-20T01:59:23.011Z,101027.81
2022-09-20T02:02:07.589Z,101032.03
2022-09-20T02:05:06.138Z,101029.00
2022-09-20T02:08:09.552Z,101033.22
2022-09-20T02:10:58.023Z,101036.22
2022-09-20T02:13:37.234Z,101035.38
2022-09-20T02:16:37.194Z,101038.91
2022-09-20T02:19:11.978Z,101035.91
2022-09-20T02:22:29.594Z,101039.13
2022-09-20T02:25:02.008Z,101037.91
2022-09-20T02:27:59.119Z,101042.94
2022-09-20T02:30:50.086Z,101040.63
2022-09-20T02:33:57.424Z,101037.91
2022-09-20T02:36:47.175Z,101043.47
2022-09-20T02:39:45.114Z,101038.28
2022-09-20T02:42:22.113Z,101042.97
2022-09-20T02:45:00.307Z,101050.19
2022-09-20T02:47:34.177Z,101049.34
2022-09-20T02:50:47.015Z,101042.97
2022-09-20T02:53:30.230Z,101046.66
2022-09-20T02:56:32.781Z,101046.50
2022-09-20T02:59:11.322Z,101046.00
2022-09-20T03:02:06.680Z,101056.59
2022-09-20T03:04:45.782Z,101050.69
2022-09-20T03:07:39.765Z,101051.38
2022-09-20T03:10:24.558Z,101047.34
2022-09-20T03:13:09.721Z,101047.31
2022-09-20T03:15:59.365Z,101051.56
2022-09-20T03:18:53.679Z,101047.16
2022-09-20T03:21:36.668Z,101050.22
2022-09-20T03:24:16.316Z,101048.50
2022-09-20T03:27:24.677Z,101047.34
2022-09-20T03:29:50.990Z,101049.66
2022-09-20T03:32:35.546Z,101047.00
2022-09-20T03:35:46.657Z,101042.28
2022-09-20T03:38:51.271Z,101045.16
2022-09-20T03:41:38.917Z,101048.84
2022-09-20T03:44:23.702Z,101048.03
2022-09-20T03:46:55.999Z,101046.28
2022-09-20T03:49:59.969Z,101056.09
2022-09-20T03:52:45.382Z,101051.50
2022-09-20T03:55:24.219Z,101062.59
2022-09-20T03:58:08.697Z,101069.84
2022-09-20T04:00:44.442Z,101081.28
2022-09-20T04:03:46.023Z,101071.84
2022-09-20T04:06:21.487Z,101069.50
2022-09-20T04:09:25.770Z,101078.06
2022-09-20T04:12:06.826Z,101070.84
2022-09-20T04:14:45.425Z,101066.47
2022-09-20T04:17:20.662Z,101077.22
2022-09-20T04:20:14.642Z,101074.75
2022-09-20T04:22:44.583Z,101070.16
2022-09-20T04:25:30.726Z,101070.50
2022-09-20T04:28:02.036Z,101076.56
2022-09-20T04:30:33.664Z,101086.31
2022-09-20T04:33:23.206Z,101080.44
2022-09-20T04:36:17.369Z,101085.97
2022-09-20T04:38:48.247Z,101076.38
2022-09-20T04:41:49.787Z,101082.81
2022-09-20T04:44:31.422Z,101095.25
2022-09-20T04:47:27.750Z,101081.28
2022-09-20T04:50:13.020Z,101089.88
2022-09-20T04:52:54.258Z,101086.34
2022-09-20T04:55:39.411Z,101094.41
2022-09-20T04:58:48.885Z,101099.78
2022-09-20T05:01:55.551Z,101096.59
2022-09-20T05:04:46.105Z,101101.44
2022-09-20T05:07:28.246Z,101099.78
2022-09-20T05:10:06.582Z,101109.69
2022-09-20T05:12:54.883Z,101103.47
2022-09-20T05:15:24.222Z,101108.00
2022-09-20T05:18:10.791Z,101114.22
2022-09-20T05:20:43.638Z,101110.84
2022-09-20T05:23:40.586Z,101121.31
2022-09-20T05:26:09.455Z,101118.59
2022-09-20T05:28:53.679Z,101122.63
2022-09-20T05:31:29.065Z,101127.03
2022-09-20T05:34:14.481Z,101128.16
2022-09-20T05:36:54.639Z,101131.88
2022-09-20T05:39:53.593Z,101137.22
2022-09-20T05:42:19.894Z,101134.72
2022-09-20T05:44:56.282Z,101145.84
2022-09-20T05:47:50.255Z,101152.38
2022-09-20T05:50:55.787Z,101145.34
2022-09-20T05:53:41.957Z,101148.50
2022-09-20T05:56:24.658Z,101154.59
2022-09-20T05:59:20.685Z,101145.84
2022-09-20T06:02:16.415Z,101160.81
2022-09-20T06:04:58.019Z,101161.81
2022-09-20T06:07:59.441Z,101157.59
2022-09-20T06:11:04.730Z,101172.75
2022-09-20T06:13:50.895Z,101178.28
2022-09-20T06:16:30.022Z,101166.81
2022-09-20T06:19:29.038Z,101175.59
2022-09-20T06:22:03.651Z,101178.56
2022-09-20T06:24:48.234Z,101186.50
2022-09-20T06:27:22.032Z,101185.31
2022-09-20T06:29:55.903Z,101183.78
2022-09-20T06:32:22.323Z,101180.72
2022-09-20T06:34:48.939Z,101179.22
2022-09-20T06:37:59.665Z,101197.25
2022-09-20T06:40:57.714Z,101201.31
2022-09-20T06:43:24.138Z,101194.19
2022-09-20T06:45:50.594Z,101199.75
2022-09-20T06:48:19.207Z,101196.72
2022-09-20T06:50:45.630Z,101198.56
2022-09-20T06:53:17.718Z,101197.94
2022-09-20T06:55:45.431Z,101203.13
2022-09-20T06:58:11.843Z,101210.16
2022-09-20T07:00:39.710Z,101206.63
2022-09-20T07:03:07.001Z,101211.19
2022-09-20T07:05:33.382Z,101211.19
2022-09-20T07:08:01.078Z,101214.03
2022-09-20T07:10:28.268Z,101217.88
2022-09-20T07:12:59.442Z,101220.78
2022-09-20T07:15:31.944Z,101224.16
2022-09-20T07:18:00.120Z,101215.34
2022-09-20T07:20:27.276Z,101224.25
2022-09-20T07:22:53.718Z,101225.41
2022-09-20T07:25:21.594Z,101227.13
2022-09-20T07:27:50.292Z,101227.13
2022-09-20T07:30:19.131Z,101226.25
2022-09-20T07:32:45.538Z,101238.03
2022-09-20T07:35:12.647Z,101235.50
2022-09-20T07:37:42.536Z,101232.81
2022-09-20T07:40:11.116Z,101238.03
2022-09-20T07:42:38.109Z,101238.19
2022-09-20T07:45:05.015Z,101248.94
2022-09-20T07:47:35.448Z,101245.56
2022-09-20T07:50:02.800Z,101243.91
2022-09-20T07:52:29.326Z,101235.78
2022-09-20T07:54:56.232Z,101249.28
2022-09-20T07:57:22.656Z,101254.31
2022-09-20T07:59:49.083Z,101252.66
2022-09-20T08:02:16.468Z,101262.41
2022-09-20T08:04:43.307Z,101255.34
2022-09-20T08:07:10.072Z,101269.63
2022-09-20T08:09:36.450Z,101266.09
2022-09-20T08:14:49.950Z,101267.91
2022-09-20T08:17:16.375Z,101272.63
2022-09-20T08:19:43.417Z,101283.06
2022-09-20T08:22:15.400Z,101284.59
2022-09-20T08:24:42.448Z,101286.94
2022-09-20T08:27:08.955Z,101284.94
2022-09-20T08:29:35.357Z,101291.97
2022-09-20T08:32:03.169Z,101290.31
2022-09-20T08:34:29.577Z,101293.97
2022-09-20T08:36:56.573Z,101291.69
2022-09-20T08:42:37.663Z,101300.94
2022-09-20T08:45:21.905Z,101309.34
2022-09-20T08:47:58.911Z,101307.69
2022-09-20T08:50:26.075Z,101306.66
2022-09-20T08:53:00.074Z,101303.78
2022-09-20T08:55:36.534Z,101306.31
2022-09-20T08:58:08.176Z,101304.25
2022-09-20T09:00:37.051Z,101307.50
2022-09-20T09:03:16.897Z,101321.31
2022-09-20T09:05:45.121Z,101313.56
2022-09-20T09:08:20.156Z,101319.16
2022-09-20T09:10:56.340Z,101320.00
2022-09-20T09:13:25.729Z,101316.47
2022-09-20T09:15:59.430Z,101327.06
2022-09-20T09:18:37.858Z,101321.38
2022-09-20T09:21:07.663Z,101327.00
2022-09-20T09:24:01.396Z,101326.06
2022-09-20T09:26:28.768Z,101330.53
2022-09-20T09:29:24.459Z,101336.53
2022-09-20T09:31:52.898Z,101335.91
2022-09-20T09:34:26.165Z,101345.91
2022-09-20T09:36:54.445Z,101343.16
2022-09-20T09:39:38.222Z,101341.22
2022-09-20T09:42:22.913Z,101351.78
2022-09-20T09:44:50.439Z,101347.69
2022-09-20T09:47:27.779Z,101347.28
2022-09-20T09:50:02.663Z,101358.34
2022-09-20T09:52:33.391Z,101341.44
2022-09-20T09:55:04.528Z,101342.63
2022-09-20T09:57:48.637Z,101347.69
2022-09-20T10:00:21.866Z,101350.91
2022-09-20T10:03:09.046Z,101350.97
2022-09-20T10:05:44.124Z,101353.06
2022-09-20T10:08:54.885Z,101352.81
2022-09-20T10:11:49.464Z,101352.13
2022-09-20T10:14:40.528Z,101364.56
2022-09-20T10:17:15.838Z,101356.47
2022-09-20T10:20:08.581Z,101367.66
2022-09-20T10:23:06.799Z,101360.75
2022-09-20T10:26:02.419Z,101366.78
2022-09-20T10:28:48.627Z,101361.56
2022-09-20T10:31:33.257Z,101367.09
2022-09-20T10:34:11.531Z,101363.25
2022-09-20T10:36:55.691Z,101366.06
2022-09-20T10:39:36.713Z,101370.16
2022-09-20T10:42:43.067Z,101375.72
2022-09-20T10:45:42.086Z,101374.00
2022-09-20T10:48:18.075Z,101364.25
2022-09-20T10:51:03.267Z,101372.84
2022-09-20T10:53:43.764Z,101376.88
2022-09-20T10:56:20.515Z,101371.84
2022-09-20T10:59:07.876Z,101379.78
2022-09-20T11:01:48.867Z,101380.63
2022-09-20T11:04:39.950Z,101383.78
2022-09-20T11:07:12.188Z,101393.38
2022-09-20T11:09:48.977Z,101383.47
2022-09-20T11:12:33.509Z,101386.94
2022-09-20T11:15:04.341Z,101397.94
2022-09-20T11:17:37.455Z,101397.06
2022-09-20T11:20:07.392Z,101397.72
2022-09-20T11:23:01.433Z,101390.06
2022-09-20T11:25:33.974Z,101392.06
2022-09-20T11:28:33.874Z,101403.19
2022-09-20T11:31:27.546Z,101399.81
2022-09-20T11:34:06.048Z,101414.91
2022-09-20T11:36:43.991Z,101413.97
2022-09-20T11:39:46.310Z,101408.25
2022-09-20T11:42:20.250Z,101402.38
2022-09-20T11:44:47.060Z,101413.22
2022-09-20T11:47:49.975Z,101408.59
2022-09-20T11:50:36.289Z,101403.06
2022-09-20T11:53:21.578Z,101399.34
2022-09-20T11:56:05.101Z,101397.50
2022-09-20T11:58:31.718Z,101395.94
2022-09-20T12:00:59.791Z,101400.97
2022-09-20T12:03:50.916Z,101418.72
2022-09-20T12:06:26.138Z,101412.97
2022-09-20T12:08:53.160Z,101423.34
2022-09-20T12:11:31.819Z,101417.19
2022-09-20T12:14:27.306Z,101417.03
2022-09-20T12:16:55.278Z,101420.66
2022-09-20T12:19:21.617Z,101426.03
2022-09-20T12:22:00.242Z,101426.81
2022-09-20T12:24:29.290Z,101425.91
2022-09-20T12:26:57.428Z,101428.72
2022-09-20T12:29:23.766Z,101421.69
2022-09-20T12:31:52.656Z,101427.75
2022-09-20T12:34:19.180Z,101424.38
2022-09-20T12:37:10.255Z,101423.09
2022-09-20T12:39:39.254Z,101424.03
2022-09-20T12:42:30.306Z,101420.41
2022-09-20T12:45:18.667Z,101424.41
2022-09-20T12:47:54.664Z,101421.09
2022-09-20T12:50:41.628Z,101424.72
2022-09-20T12:53:16.660Z,101423.78
2022-09-20T12:55:54.930Z,101420.09
2022-09-20T12:58:25.393Z,101427.78
2022-09-20T13:01:14.329Z,101420.59
2022-09-20T13:03:49.965Z,101421.63
2022-09-20T13:06:17.703Z,101418.88
2022-09-20T13:08:52.999Z,101418.72
2022-09-20T13:11:42.240Z,101422.03
2022-09-20T13:14:24.709Z,101424.88
2022-09-20T13:16:58.982Z,101423.31
2022-09-20T13:19:29.676Z,101428.56
2022-09-20T13:22:34.458Z,101434.16
2022-09-20T13:25:04.126Z,101434.94
2022-09-20T13:27:50.814Z,101433.47
2022-09-20T13:30:20.169Z,101437.63
2022-09-20T13:32:47.755Z,101427.00
2022-09-20T13:35:25.555Z,101437.41
2022-09-20T13:38:04.978Z,101441.94
2022-09-20T13:40:39.862Z,101443.25
2022-09-20T13:43:24.156Z,101443.56
2022-09-20T13:45:57.718Z,101432.50
2022-09-20T13:48:26.441Z,101441.72
2022-09-20T13:50:53.931Z,101440.88
2022-09-20T13:53:40.219Z,101448.78
2022-09-20T13:56:28.437Z,101445.28
2022-09-20T13:58:56.210Z,101447.78
2022-09-20T14:01:25.797Z,101443.47
2022-09-20T14:03:53.503Z,101445.94
2022-09-20T14:06:28.131Z,101452.22
2022-09-20T14:08:55.659Z,101446.47
2022-09-20T14:11:33.733Z,101452.59
2022-09-20T14:14:02.475Z,101454.25
2022-09-20T14:16:32.741Z,101450.53
2022-09-20T14:19:00.100Z,101450.53
2022-09-20T14:21:31.674Z,101455.63
2022-09-20T14:24:02.583Z,101459.28
2022-09-20T14:26:33.559Z,101461.50
2022-09-20T14:29:33.877Z,101459.41
2022-09-20T14:32:16.726Z,101462.94
2022-09-20T14:34:53.279Z,101466.94
2022-09-20T14:37:32.701Z,101467.22
2022-09-20T14:40:04.381Z,101463.84
2022-09-20T14:42:41.074Z,101458.31
2022-09-20T14:45:08.565Z,101481.31
2022-09-20T14:47:57.230Z,101474.84
2022-09-20T14:50:35.471Z,101480.91
2022-09-20T14:53:13.616Z,101482.09
2022-09-20T14:55:54.465Z,101479.75
2022-09-20T14:58:20.871Z,101484.16
2022-09-20T15:01:01.597Z,101490.25
2022-09-20T15:03:34.116Z,101497.66
2022-09-20T15:06:00.822Z,101490.38
2022-09-20T15:08:27.468Z,101489.69
2022-09-20T15:10:54.486Z,101480.25
2022-09-20T15:13:21.030Z,101490.88
2022-09-20T15:15:51.008Z,101496.59
2022-09-20T15:18:27.333Z,101492.03
2022-09-20T15:20:55.121Z,101501.81
2022-09-20T15:23:21.849Z,101496.91
2022-09-20T15:25:51.350Z,101506.34
2022-09-20T15:28:18.294Z,101505.19
2022-09-20T15:30:45.862Z,101502.78
2022-09-20T15:33:12.746Z,101510.03
2022-09-20T15:35:40.671Z,101511.22
2022-09-20T15:38:11.723Z,101506.81
2022-09-20T15:40:47.352Z,101509.53
2022-09-20T15:43:17.034Z,101503.44
2022-09-20T15:45:50.569Z,101516.25
2022-09-20T15:48:20.858Z,101510.13
2022-09-20T15:51:02.022Z,101514.41
2022-09-20T15:53:34.317Z,101516.56
2022-09-20T15:56:02.541Z,101516.69
2022-09-20T15:58:35.463Z,101513.16
2022-09-20T16:01:07.987Z,101521.25
2022-09-20T16:03:36.164Z,101522.28
2022-09-20T16:06:05.359Z,101529.34
2022-09-20T16:08:36.925Z,101529.00
2022-09-20T16:11:05.472Z,101500.72
2022-09-20T16:13:32.247Z,101516.47
2022-09-20T16:16:00.684Z,101517.31
2022-09-20T16:18:46.805Z,101522.88
2022-09-20T16:21:16.123Z,101536.16
2022-09-20T16:23:48.031Z,101537.56
2022-09-20T16:26:14.430Z,101537.66
2022-09-20T16:28:45.128Z,101532.97
2022-09-20T16:31:32.722Z,101543.50
2022-09-20T16:34:00.255Z,101551.81
2022-09-20T16:36:27.616Z,101554.66
2022-09-20T16:38:55.307Z,101551.97
2022-09-20T16:41:24.831Z,101562.47
2022-09-20T16:43:52.086Z,101557.84
2022-09-20T16:46:25.060Z,101565.81
2022-09-20T16:48:53.675Z,101569.31
2022-09-20T16:51:25.167Z,101566.63
2022-09-20T16:53:55.540Z,101573.88
2022-09-20T16:56:28.796Z,101575.38
2022-09-20T16:58:56.085Z,101578.56
2022-09-20T17:01:23.145Z,101576.72
2022-09-20T17:03:49.637Z,101572.34
2022-09-20T17:06:16.501Z,101576.84
2022-09-20T17:08:44.846Z,101579.72
2022-09-20T17:11:16.891Z,101585.31
2022-09-20T17:13:45.403Z,101587.63
2022-09-20T17:16:14.410Z,101594.88
2022-09-20T17:18:44.407Z,101588.25
2022-09-20T17:21:13.904Z,101594.88
2022-09-20T17:23:42.357Z,101596.34
2022-09-20T17:26:14.842Z,101598.59
2022-09-20T17:28:43.682Z,101598.19
2022-09-20T17:31:15.640Z,101608.97
2022-09-20T17:33:42.877Z,101606.44
2022-09-20T17:36:14.426Z,101608.69
2022-09-20T17:38:41.467Z,101604.75
2022-09-20T17:41:12.554Z,101607.81
2022-09-20T17:43:39.543Z,101612.97
2022-09-20T17:46:16.368Z,101611.19
2022-09-20T17:48:48.968Z,101617.66
2022-09-20T17:51:17.177Z,101634.38
2022-09-20T17:53:44.101Z,101639.91
2022-09-20T17:56:12.827Z,101638.94
2022-09-20T17:58:40.423Z,101649.00
2022-09-20T18:01:15.329Z,101643.53
2022-09-20T18:03:45.435Z,101639.91
2022-09-20T18:06:20.150Z,101643.63
2022-09-20T18:08:48.579Z,101645.63
2022-09-20T18:11:16.932Z,101646.63
2022-09-20T18:13:44.051Z,101650.31
2022-09-20T18:16:12.090Z,101662.63
2022-09-20T18:18:40.777Z,101651.16
2022-09-20T18:21:26.751Z,101651.09
2022-09-20T18:23:53.499Z,101663.78
2022-09-20T18:26:22.656Z,101661.78
2022-09-20T18:29:01.343Z,101671.41
2022-09-20T18:31:34.514Z,101667.31
2022-09-20T18:34:01.578Z,101670.63
2022-09-20T18:36:33.341Z,101680.50
2022-09-20T18:39:00.211Z,101678.41
2022-09-20T18:41:29.142Z,101672.34
2022-09-20T18:43:56.052Z,101668.41
2022-09-20T18:46:24.855Z,101687.34
2022-09-20T18:48:52.906Z,101690.16
2022-09-20T18:51:20.097Z,101688.50
2022-09-20T18:53:47.143Z,101693.03
2022-09-20T18:56:27.007Z,101695.66
2022-09-20T18:58:56.019Z,101701.81
2022-09-20T19:01:44.028Z,101701.88
2022-09-20T19:04:35.082Z,101701.88
2022-09-20T19:07:22.863Z,101706.03
2022-09-20T19:09:49.226Z,101706.78
2022-09-20T19:12:23.242Z,101711.44
2022-09-20T19:15:19.583Z,101715.66
2022-09-20T19:17:52.990Z,101717.66
2022-09-20T19:20:27.817Z,101691.19
2022-09-20T19:23:07.102Z,101716.69
2022-09-20T19:25:43.372Z,101723.38
2022-09-20T19:28:15.589Z,101721.38
2022-09-20T19:30:42.704Z,101723.97
2022-09-20T19:33:17.175Z,101721.19
2022-09-20T19:35:50.000Z,101721.38
2022-09-20T19:38:35.180Z,101722.06
2022-09-20T19:41:27.403Z,101727.75
2022-09-20T19:44:15.039Z,101732.97
2022-09-20T19:47:01.909Z,101735.81
2022-09-20T19:49:48.256Z,101736.03
2022-09-20T19:52:14.939Z,101737.03
2022-09-20T19:54:46.723Z,101738.03
2022-09-20T19:57:18.227Z,101743.53
2022-09-20T19:59:44.875Z,101742.59
2022-09-20T20:02:12.294Z,101743.44
2022-09-20T20:04:38.910Z,101743.44
2022-09-20T20:07:48.574Z,101735.34
2022-09-20T20:10:28.855Z,101755.13
2022-09-20T20:13:32.203Z,101754.13
2022-09-20T20:16:06.182Z,101750.22
2022-09-20T20:18:38.090Z,101761.69
2022-09-20T20:21:13.349Z,101758.44
2022-09-20T20:24:09.282Z,101756.28
2022-09-20T20:26:35.951Z,101762.59
2022-09-20T20:29:02.519Z,101755.50
2022-09-20T20:31:29.452Z,101762.59
2022-09-20T20:33:56.019Z,101762.59
2022-09-20T20:36:22.435Z,101762.88
2022-09-20T20:38:51.652Z,101763.56
2022-09-20T20:41:21.641Z,101766.25
2022-09-20T20:43:51.798Z,101762.19
2022-09-20T20:46:21.110Z,101767.44
2022-09-20T20:48:47.948Z,101772.66
2022-09-20T20:51:16.901Z,101762.03
2022-09-20T20:53:47.155Z,101774.34
2022-09-20T20:56:19.260Z,101773.06
2022-09-20T20:58:47.101Z,101782.56
2022-09-20T21:01:17.833Z,101783.44
2022-09-20T21:03:48.081Z,101789.53
2022-09-20T21:06:15.551Z,101789.94
2022-09-20T21:08:48.901Z,101788.41
2022-09-20T21:11:23.326Z,101795.31
2022-09-20T21:13:50.814Z,101791.09
2022-09-20T21:16:19.597Z,101785.56
2022-09-20T21:18:48.138Z,101797.50
2022-09-20T21:21:18.965Z,101788.81
2022-09-20T21:23:47.767Z,101799.03
2022-09-20T21:26:15.801Z,101800.06
2022-09-20T21:28:44.938Z,101792.13
2022-09-20T21:31:12.864Z,101792.38
2022-09-20T21:33:41.474Z,101802.88
2022-09-20T21:36:10.966Z,101799.34
2022-09-20T21:38:38.073Z,101799.50
2022-09-20T21:41:16.029Z,101800.28
2022-09-20T21:43:44.215Z,101809.25
2022-09-20T21:46:19.044Z,101803.41
2022-09-20T21:48:47.389Z,101808.53
2022-09-20T21:51:16.267Z,101798.66
2022-09-20T21:53:42.658Z,101804.19
2022-09-20T21:56:11.508Z,101806.88
2022-09-20T21:58:41.732Z,101806.03
2022-09-20T22:01:15.443Z,101807.72
2022-09-20T22:03:44.294Z,101809.56
2022-09-20T22:06:17.237Z,101817.03
2022-09-20T22:08:58.398Z,101815.88
2022-09-20T22:11:32.521Z,101814.50
2022-09-20T22:14:01.814Z,101819.03
2022-09-20T22:16:30.127Z,101817.06
2022-09-20T22:18:56.862Z,101810.84
2022-09-20T22:21:26.136Z,101809.69
2022-09-20T22:23:57.333Z,101809.13
2022-09-20T22:26:26.750Z,101809.88
2022-09-20T22:28:53.534Z,101807.44
2022-09-20T22:31:28.178Z,101807.56
2022-09-20T22:33:57.260Z,101811.13
2022-09-20T22:36:26.070Z,101809.97
2022-09-20T22:38:53.823Z,101804.88
2022-09-20T22:41:20.888Z,101810.44
2022-09-20T22:43:47.705Z,101810.25
2022-09-20T22:46:18.725Z,101816.66
2022-09-20T22:48:45.198Z,101815.94
2022-09-20T22:51:20.249Z,101812.94
2022-09-20T22:53:48.089Z,101809.72
2022-09-20T22:56:21.216Z,101815.81
2022-09-20T22:58:49.715Z,101806.34
2022-09-20T23:01:21.575Z,101812.28
2022-09-20T23:03:54.249Z,101811.84
2022-09-20T23:06:24.360Z,101813.13
2022-09-20T23:08:52.491Z,101806.47
2022-09-20T23:11:19.805Z,101811.72
2022-09-20T23:13:46.693Z,101808.19
2022-09-20T23:16:25.129Z,101811.69
2022-09-20T23:18:53.102Z,101806.47
2022-09-20T23:21:20.387Z,101812.88
2022-09-20T23:23:48.024Z,101814.53
2022-09-20T23:26:18.586Z,101816.78
2022-09-20T23:28:47.260Z,101819.94
2022-09-20T23:31:16.884Z,101813.41
2022-09-20T23:33:48.296Z,101815.09
2022-09-20T23:36:15.742Z,101815.00
2022-09-20T23:38:42.217Z,101813.44
2022-09-20T23:41:12.181Z,101817.38
2022-09-20T23:43:39.906Z,101820.50
2022-09-20T23:46:08.053Z,101813.31
2022-09-20T23:48:37.672Z,101812.63
2022-09-20T23:51:05.253Z,101816.16
2022-09-20T23:53:32.344Z,101821.66
2022-09-20T23:55:58.808Z,101815.59
2022-09-20T23:58:25.303Z,101822.69
